Time;durP1;ratioP1;P1;durP2;ratioP2;P2;SDS_P1;SDS_P2;PMS_P1;PMS_P2;Temp;Humidity;BMP_temperature;BMP_pressure;BME280_temperature;BME280_humidity;BME280_pressure;Samples;Min_cycle;Max_cycle;Signal;HPM_P1;HPM_P2
2022/03/20 00:01:26;;;;;;;21.38;15.75;;;;;;;6.66;47.39;102001.00;5051638;28;20053;-52
2022/03/20 00:03:54;;;;;;;18.73;15.77;;;;;;;6.64;47.60;101997.66;5051745;28;20053;-51
2022/03/20 00:06:22;;;;;;;23.27;17.13;;;;;;;6.58;47.56;101998.66;5051751;28;20056;-52
2022/03/20 00:08:52;;;;;;;17.83;15.30;;;;;;;6.55;47.54;101990.81;5051301;28;20482;-52
2022/03/20 00:11:19;;;;;;;22.30;16.90;;;;;;;6.51;47.54;101998.81;5047632;28;20413;-50
2022/03/20 00:13:46;;;;;;;22.15;17.00;;;;;;;6.45;48.00;101988.75;5051863;28;20048;-51
2022/03/20 00:16:15;;;;;;;21.58;16.27;;;;;;;6.43;47.92;101988.97;5042216;28;20053;-50
2022/03/20 00:18:42;;;;;;;20.15;16.17;;;;;;;6.42;47.79;101981.75;5031769;28;20057;-51
2022/03/20 00:21:12;;;;;;;18.95;15.10;;;;;;;6.38;48.20;101966.72;5039266;28;20064;-53
2022/03/20 00:23:39;;;;;;;20.20;15.98;;;;;;;6.35;47.65;101969.19;5050661;28;20059;-53
2022/03/20 00:26:08;;;;;;;19.73;16.65;;;;;;;6.30;47.93;101964.41;5047123;28;20402;-52
2022/03/20 00:28:38;;;;;;;18.33;15.33;;;;;;;6.25;47.99;101956.81;5051164;28;20048;-51
2022/03/20 00:31:05;;;;;;;20.75;15.68;;;;;;;6.25;48.02;101945.75;5051435;28;20066;-50
2022/03/20 00:33:33;;;;;;;21.73;17.42;;;;;;;6.18;47.72;101953.38;5051033;28;20052;-52
2022/03/20 00:36:00;;;;;;;20.13;15.38;;;;;;;6.18;47.71;101939.53;5051272;28;20072;-53
2022/03/20 00:38:29;;;;;;;20.90;16.83;;;;;;;6.17;48.11;101942.56;5044128;28;20410;-54
2022/03/20 00:40:56;;;;;;;21.95;16.13;;;;;;;6.14;47.98;101954.97;5047576;28;20049;-55
2022/03/20 00:43:24;;;;;;;20.90;15.32;;;;;;;6.10;47.85;101943.53;5051050;28;20053;-54
2022/03/20 00:45:51;;;;;;;21.98;16.00;;;;;;;6.08;47.93;101940.19;5050777;28;20045;-54
2022/03/20 00:48:18;;;;;;;20.98;16.15;;;;;;;6.04;47.57;101941.75;5034189;28;20053;-50
2022/03/20 00:50:46;;;;;;;20.30;15.50;;;;;;;5.98;47.32;101933.63;5049820;28;20049;-52
2022/03/20 00:53:13;;;;;;;20.95;16.17;;;;;;;6.03;47.56;101936.50;5050437;28;20056;-50
2022/03/20 00:55:42;;;;;;;21.83;17.02;;;;;;;6.00;47.72;101921.22;5051047;28;20069;-50
2022/03/20 00:58:11;;;;;;;20.83;15.60;;;;;;;5.95;47.44;101932.19;5046619;28;20057;-54
2022/03/20 01:00:39;;;;;;;19.27;15.52;;;;;;;5.92;47.48;101927.13;5051175;28;20059;-52
2022/03/20 01:03:06;;;;;;;18.25;14.73;;;;;;;5.84;47.87;101927.53;5051247;28;20057;-52
2022/03/20 01:05:33;;;;;;;20.58;15.68;;;;;;;5.87;47.41;101915.97;5031597;28;20482;-53
2022/03/20 01:08:01;;;;;;;20.10;15.73;;;;;;;5.86;47.41;101920.66;5035232;28;20064;-50
2022/03/20 01:10:29;;;;;;;19.65;16.10;;;;;;;5.79;47.62;101913.59;5051350;28;20482;-52
2022/03/20 01:12:58;;;;;;;19.42;15.68;;;;;;;5.82;47.04;101908.41;5053014;28;20055;-49
2022/03/20 01:15:25;;;;;;;22.25;16.33;;;;;;;5.75;47.78;101907.72;5054110;28;20052;-50
2022/03/20 01:17:53;;;;;;;20.95;15.82;;;;;;;5.63;47.75;101905.00;5054375;28;20072;-52
2022/03/20 01:20:20;;;;;;;21.67;16.63;;;;;;;5.70;47.49;101899.34;5054087;28;20470;-50
2022/03/20 01:22:49;;;;;;;21.23;16.42;;;;;;;5.72;47.38;101894.41;5053868;28;20057;-53
2022/03/20 01:25:18;;;;;;;22.10;16.90;;;;;;;5.74;47.03;101894.16;5047288;28;20049;-53
2022/03/20 01:27:46;;;;;;;19.25;15.95;;;;;;;5.69;46.85;101886.59;5054552;28;20057;-50
2022/03/20 01:30:15;;;;;;;20.45;16.77;;;;;;;5.64;47.35;101887.31;5054237;28;20049;-50
2022/03/20 01:32:42;;;;;;;22.08;16.02;;;;;;;5.61;47.35;101879.53;5054055;28;20057;-52
2022/03/20 01:35:10;;;;;;;19.65;15.57;;;;;;;5.63;47.06;101874.59;5054227;28;20053;-52
2022/03/20 01:37:37;;;;;;;22.58;16.48;;;;;;;5.66;47.27;101868.56;5053795;28;20409;-51
2022/03/20 01:40:06;;;;;;;18.33;14.90;;;;;;;5.69;47.01;101868.09;5052136;28;20075;-54
2022/03/20 01:42:33;;;;;;;21.17;15.80;;;;;;;5.74;47.12;101861.00;5052040;28;20394;-50
2022/03/20 01:45:00;;;;;;;20.05;15.88;;;;;;;5.77;46.96;101857.72;5054233;28;20055;-49
2022/03/20 01:47:29;;;;;;;20.67;14.75;;;;;;;5.79;47.10;101853.59;5053989;28;20053;-51
2022/03/20 01:49:57;;;;;;;20.30;14.88;;;;;;;5.78;47.17;101851.94;5053863;28;20059;-53
2022/03/20 01:52:24;;;;;;;20.73;15.73;;;;;;;5.89;47.13;101841.91;5053758;28;20516;-53
2022/03/20 01:54:52;;;;;;;20.00;14.57;;;;;;;5.88;46.61;101843.84;5053641;28;20052;-51
2022/03/20 01:57:21;;;;;;;20.75;15.57;;;;;;;5.98;46.66;101834.88;5054065;28;20502;-52
2022/03/20 01:59:48;;;;;;;21.02;15.95;;;;;;;5.98;46.56;101834.88;5054034;28;20434;-55
2022/03/20 02:02:16;;;;;;;20.90;16.08;;;;;;;6.02;46.36;101829.72;5054049;28;20458;-53
2022/03/20 02:04:45;;;;;;;20.98;15.93;;;;;;;6.08;45.92;101831.47;5053826;28;20425;-52
2022/03/20 02:07:12;;;;;;;19.63;15.82;;;;;;;6.08;45.90;101832.31;5054021;28;20393;-53
2022/03/20 02:09:42;;;;;;;19.27;15.73;;;;;;;6.14;45.75;101822.16;5052631;28;20053;-52
2022/03/20 02:12:11;;;;;;;21.08;15.25;;;;;;;6.13;45.96;101819.66;5054053;28;20401;-49
2022/03/20 02:14:38;;;;;;;22.15;16.50;;;;;;;6.14;46.10;101815.81;5053888;28;20486;-54
2022/03/20 02:17:07;;;;;;;21.27;15.50;;;;;;;6.17;45.56;101823.59;5054402;28;20488;-51
2022/03/20 02:19:35;;;;;;;22.17;16.07;;;;;;;6.24;45.68;101819.56;5053308;28;20057;-51
2022/03/20 02:22:05;;;;;;;20.60;15.82;;;;;;;6.26;45.74;101808.25;5054145;28;20053;-52
2022/03/20 02:24:39;;;;;;;19.65;16.10;;;;;;;6.34;45.20;101802.31;5052596;28;20057;-51
2022/03/20 02:27:11;;;;;;;20.27;16.08;;;;;;;6.38;45.91;101795.13;5054082;28;20049;-51
2022/03/20 02:29:40;;;;;;;19.08;15.32;;;;;;;6.45;46.63;101797.75;5053498;28;20057;-50
2022/03/20 02:32:09;;;;;;;23.58;16.17;;;;;;;6.49;46.14;101791.44;5054154;28;20393;-51
2022/03/20 02:34:37;;;;;;;20.60;15.45;;;;;;;6.53;45.18;101793.69;5053597;28;20060;-50
2022/03/20 02:37:08;;;;;;;22.45;16.38;;;;;;;6.60;45.13;101792.44;5053829;28;20057;-53
2022/03/20 02:39:36;;;;;;;21.58;15.73;;;;;;;6.66;45.06;101785.03;5052634;28;20056;-51
2022/03/20 02:42:05;;;;;;;21.50;15.80;;;;;;;6.71;44.86;101779.56;5053732;28;20049;-50
2022/03/20 02:44:54;;;;;;;18.25;14.80;;;;;;;6.75;44.83;101777.97;5053501;28;20403;-53
2022/03/20 02:47:23;;;;;;;21.85;16.63;;;;;;;6.81;44.33;101771.41;5053966;28;20052;-54
2022/03/20 02:49:56;;;;;;;19.73;15.48;;;;;;;6.87;44.87;101770.38;5053406;28;20057;-51
2022/03/20 02:52:28;;;;;;;20.50;15.32;;;;;;;6.82;44.29;101758.38;5053393;28;20053;-50
2022/03/20 02:54:57;;;;;;;22.00;16.33;;;;;;;6.89;43.90;101761.81;5052232;28;20413;-53
2022/03/20 02:57:24;;;;;;;20.42;15.18;;;;;;;6.95;44.59;101760.78;5053003;28;20410;-55
2022/03/20 02:59:51;;;;;;;19.85;15.35;;;;;;;6.99;43.35;101758.31;5052095;28;20064;-50
2022/03/20 03:02:19;;;;;;;18.90;15.25;;;;;;;7.01;43.63;101754.16;5052647;28;20429;-53
2022/03/20 03:04:46;;;;;;;18.70;15.27;;;;;;;7.00;43.15;101755.28;5053063;28;20064;-54
2022/03/20 03:07:13;;;;;;;21.85;15.00;;;;;;;7.04;43.52;101750.91;5053263;28;20406;-53
2022/03/20 03:12:27;;;;;;;19.80;15.30;;;;;;;7.07;42.30;101742.06;5053181;28;20409;-53
2022/03/20 03:17:39;;;;;;;19.13;15.55;;;;;;;7.08;42.89;101726.28;5058706;28;20080;-53
2022/03/20 03:20:08;;;;;;;19.65;14.48;;;;;;;7.10;41.89;101724.94;5052633;28;20068;-53
2022/03/20 03:22:36;;;;;;;19.45;14.52;;;;;;;7.04;42.05;101717.66;5052737;28;20056;-51
2022/03/20 03:25:06;;;;;;;19.02;14.50;;;;;;;7.09;42.00;101705.78;5051662;28;20057;-51
2022/03/20 03:27:35;;;;;;;17.90;14.50;;;;;;;7.10;42.12;101702.75;5052616;28;20053;-50
2022/03/20 03:30:02;;;;;;;18.80;14.75;;;;;;;7.10;42.08;101690.84;5051943;28;20056;-53
2022/03/20 03:32:29;;;;;;;19.13;14.98;;;;;;;7.13;42.41;101684.78;5052655;28;20064;-49
2022/03/20 03:37:41;;;;;;;17.90;14.23;;;;;;;7.08;41.20;101690.28;5058253;28;20056;-49
2022/03/20 03:40:11;;;;;;;19.95;14.98;;;;;;;7.08;41.31;101679.19;5051902;28;20059;-52
2022/03/20 03:42:39;;;;;;;19.23;14.25;;;;;;;7.02;41.15;101680.25;5052127;28;20060;-52
2022/03/20 03:45:08;;;;;;;18.63;14.23;;;;;;;6.99;40.99;101672.44;5052486;28;20053;-54
2022/03/20 03:47:35;;;;;;;20.02;15.07;;;;;;;6.98;40.65;101673.53;5052216;28;20489;-50
2022/03/20 03:50:03;;;;;;;19.10;14.13;;;;;;;6.90;40.23;101670.13;5040972;28;20426;-53
2022/03/20 03:52:30;;;;;;;19.23;14.73;;;;;;;6.78;40.66;101676.91;5044267;28;20107;-51
2022/03/20 03:54:58;;;;;;;19.20;14.55;;;;;;;6.81;40.38;101662.56;5049346;28;20089;-52
2022/03/20 03:57:27;;;;;;;18.75;14.18;;;;;;;6.68;41.14;101663.81;5041706;28;20391;-52
2022/03/20 03:59:54;;;;;;;18.85;14.80;;;;;;;6.70;40.26;101658.84;5033349;28;20065;-49
2022/03/20 04:02:22;;;;;;;20.92;14.75;;;;;;;6.69;40.78;101662.69;5048523;28;20052;-51
2022/03/20 04:04:49;;;;;;;18.90;14.88;;;;;;;6.62;40.61;101654.59;5038869;28;20053;-50
2022/03/20 04:07:18;;;;;;;18.33;15.02;;;;;;;6.63;40.85;101658.19;5040367;28;20471;-53
2022/03/20 04:09:45;;;;;;;18.88;14.10;;;;;;;6.58;40.97;101658.97;5045723;28;20056;-50
2022/03/20 04:12:14;;;;;;;20.17;15.02;;;;;;;6.59;40.73;101645.97;5052284;28;20436;-54
2022/03/20 04:14:43;;;;;;;17.10;14.40;;;;;;;6.66;40.47;101643.84;5051551;28;20049;-51
2022/03/20 04:17:11;;;;;;;19.85;14.73;;;;;;;6.62;40.23;101640.75;5052251;28;20405;-51
2022/03/20 04:19:38;;;;;;;21.05;14.88;;;;;;;6.68;40.61;101628.63;5051189;28;20057;-51
2022/03/20 04:22:06;;;;;;;18.73;14.02;;;;;;;6.63;40.37;101623.03;5052037;28;20064;-50
2022/03/20 04:24:36;;;;;;;22.15;14.90;;;;;;;6.67;40.96;101624.19;5051400;28;20056;-50
2022/03/20 04:27:04;;;;;;;18.27;14.25;;;;;;;6.62;41.13;101620.53;5047619;28;20049;-54
2022/03/20 04:29:32;;;;;;;19.55;13.70;;;;;;;6.66;40.59;101618.94;5052029;28;20059;-53
2022/03/20 04:32:01;;;;;;;16.90;13.65;;;;;;;6.66;40.73;101617.00;5052167;28;20057;-49
2022/03/20 04:34:29;;;;;;;19.42;14.55;;;;;;;6.67;40.70;101617.81;5037764;28;20060;-53
2022/03/20 04:36:57;;;;;;;17.95;14.35;;;;;;;6.73;40.57;101614.00;5032096;28;20049;-53
2022/03/20 04:39:24;;;;;;;19.30;14.52;;;;;;;6.73;41.36;101608.47;5043750;28;20053;-51
2022/03/20 04:41:52;;;;;;;18.77;14.00;;;;;;;6.77;41.38;101608.78;5041055;28;20052;-50
2022/03/20 04:44:19;;;;;;;18.65;14.88;;;;;;;6.77;40.82;101604.09;5053770;28;20079;-50
2022/03/20 04:46:46;;;;;;;19.45;14.63;;;;;;;6.80;39.93;101609.09;5055761;28;20048;-49
2022/03/20 05:00:20;;;;;;;19.25;14.38;;;;;;;6.62;40.25;101609.47;5040365;28;20064;-52
2022/03/20 05:02:48;;;;;;;16.98;13.85;;;;;;;6.68;40.20;101617.56;5039525;28;20054;-52
2022/03/20 05:05:18;;;;;;;19.08;14.93;;;;;;;6.69;39.82;101616.47;5049115;28;20046;-52
2022/03/20 05:07:45;;;;;;;16.92;13.38;;;;;;;6.69;39.86;101613.69;5035063;28;20049;-50
2022/03/20 05:15:42;;;;;;;17.63;14.25;;;;;;;6.50;39.60;101612.38;5059612;28;20520;-50
2022/03/20 05:18:10;;;;;;;18.58;14.90;;;;;;;6.43;40.22;101612.56;5055391;28;20056;-52
2022/03/20 05:20:39;;;;;;;18.60;13.57;;;;;;;6.35;40.35;101617.72;5040594;28;20057;-53
2022/03/20 05:23:06;;;;;;;19.73;13.82;;;;;;;6.25;39.69;101618.44;5053538;28;20057;-52
2022/03/20 05:25:33;;;;;;;19.63;14.80;;;;;;;6.15;40.23;101618.28;5051425;28;20053;-51
2022/03/20 05:28:00;;;;;;;18.00;15.10;;;;;;;6.10;41.27;101613.53;5054474;28;20060;-52
2022/03/20 05:30:28;;;;;;;17.92;13.93;;;;;;;6.05;40.54;101596.88;5054951;28;20055;-52
2022/03/20 05:32:56;;;;;;;19.77;14.13;;;;;;;5.98;40.76;101599.81;5054224;28;20052;-50
2022/03/20 05:35:23;;;;;;;17.98;13.85;;;;;;;5.90;40.64;101601.09;5039902;28;20060;-49
2022/03/20 05:37:52;;;;;;;18.83;13.52;;;;;;;5.81;40.76;101610.06;5034630;28;20056;-54
2022/03/20 05:40:20;;;;;;;19.53;15.07;;;;;;;5.75;41.35;101606.38;5046799;28;20045;-50
2022/03/20 05:42:47;;;;;;;19.52;14.85;;;;;;;5.68;41.19;101614.84;5051419;28;20497;-51
2022/03/20 05:45:14;;;;;;;17.83;14.27;;;;;;;5.61;41.27;101607.84;5054218;28;20057;-54
2022/03/20 05:47:42;;;;;;;18.33;14.15;;;;;;;5.55;41.62;101606.09;5054342;28;20045;-50
2022/03/20 05:50:10;;;;;;;20.88;14.73;;;;;;;5.49;41.49;101599.63;5054451;28;20052;-49
2022/03/20 05:52:38;;;;;;;16.33;13.20;;;;;;;5.42;41.59;101590.69;5053285;28;20057;-52
2022/03/20 05:55:10;;;;;;;18.75;13.98;;;;;;;5.30;42.19;101585.25;5052395;28;20050;-55
2022/03/20 06:00:25;;;;;;;19.05;13.77;;;;;;;5.26;42.46;101582.16;5043339;28;20064;-54
2022/03/20 06:02:52;;;;;;;20.13;14.80;;;;;;;5.23;42.20;101584.59;5053223;28;20529;-54
2022/03/20 06:05:21;;;;;;;19.50;13.45;;;;;;;5.21;42.04;101582.06;5054114;28;20049;-50
2022/03/20 06:07:52;;;;;;;18.77;13.97;;;;;;;5.22;41.90;101575.44;5034872;28;20410;-53
2022/03/20 06:10:21;;;;;;;20.95;13.85;;;;;;;5.19;41.83;101573.22;5042822;28;20487;-51
2022/03/20 06:12:49;;;;;;;20.60;14.93;;;;;;;5.15;42.20;101583.06;5053742;28;20440;-53
2022/03/20 06:15:16;;;;;;;18.52;13.73;;;;;;;5.21;41.83;101584.00;5054320;28;20481;-51
2022/03/20 06:17:45;;;;;;;19.08;13.77;;;;;;;5.25;41.75;101583.25;5053637;28;20044;-50
2022/03/20 06:20:15;;;;;;;18.77;13.50;;;;;;;5.28;41.85;101577.22;5053203;28;20052;-49
2022/03/20 06:22:44;;;;;;;20.60;15.25;;;;;;;5.29;42.02;101575.28;5054389;28;20422;-55
2022/03/20 06:25:15;;;;;;;16.52;13.15;;;;;;;5.35;41.79;101571.50;5052804;28;20045;-50
2022/03/20 06:27:45;;;;;;;19.92;15.20;;;;;;;5.34;41.52;101567.09;5049423;28;20049;-49
2022/03/20 06:30:14;;;;;;;19.45;14.32;;;;;;;5.41;41.69;101558.63;5053233;28;20060;-49
2022/03/20 06:32:42;;;;;;;19.45;13.45;;;;;;;5.50;41.59;101554.31;5053016;28;20053;-50
2022/03/20 06:35:11;;;;;;;19.85;14.48;;;;;;;5.62;41.33;101554.22;5053583;28;20049;-52
2022/03/20 06:37:39;;;;;;;19.73;14.48;;;;;;;5.73;41.09;101569.03;5052985;28;20052;-54
2022/03/20 06:40:08;;;;;;;19.98;14.75;;;;;;;5.74;41.00;101573.47;5052192;28;20045;-53
2022/03/20 06:42:37;;;;;;;18.70;13.23;;;;;;;5.84;41.30;101593.81;5033419;28;20057;-53
2022/03/20 06:45:08;;;;;;;19.90;13.90;;;;;;;6.01;40.82;101599.31;5050880;28;20064;-50
2022/03/20 06:47:35;;;;;;;19.42;14.60;;;;;;;6.13;40.64;101598.34;5053225;28;20055;-52
2022/03/20 06:50:03;;;;;;;18.13;13.32;;;;;;;6.26;40.40;101592.44;5051202;28;20056;-49
2022/03/20 06:52:31;;;;;;;19.42;13.10;;;;;;;6.44;40.31;101594.03;5041647;28;20053;-51
2022/03/20 06:55:00;;;;;;;18.75;14.02;;;;;;;7.04;39.13;101589.41;5052010;28;20049;-54
2022/03/20 06:57:28;;;;;;;19.10;14.40;;;;;;;7.21;38.96;101595.63;5050536;28;20057;-54
2022/03/20 06:59:57;;;;;;;18.13;14.23;;;;;;;7.53;37.99;101603.09;5050940;28;20045;-50
2022/03/20 07:02:26;;;;;;;17.40;14.07;;;;;;;7.86;37.92;101599.16;5052780;28;20482;-52
2022/03/20 07:04:54;;;;;;;18.98;14.70;;;;;;;7.89;37.93;101601.38;5052522;28;20464;-51
2022/03/20 07:07:23;;;;;;;20.40;14.85;;;;;;;8.02;36.53;101593.66;5052868;28;20431;-49
2022/03/20 07:09:51;;;;;;;17.83;14.63;;;;;;;7.97;36.88;101599.22;5049091;28;20053;-52
2022/03/20 07:12:19;;;;;;;18.40;13.20;;;;;;;7.98;38.22;101598.09;5052099;28;20421;-52
2022/03/20 07:14:47;;;;;;;15.10;12.57;;;;;;;8.13;37.87;101598.19;5051053;28;20049;-55
2022/03/20 07:17:16;;;;;;;17.48;13.80;;;;;;;8.53;36.27;101591.97;5045039;28;20056;-50
2022/03/20 07:19:46;;;;;;;18.48;14.15;;;;;;;9.15;35.67;101580.94;5043900;28;20041;-50
2022/03/20 07:22:15;;;;;;;18.02;14.18;;;;;;;9.30;35.24;101578.19;5044958;28;20053;-52
2022/03/20 07:24:43;;;;;;;17.70;13.57;;;;;;;9.53;34.82;101582.34;5048363;28;20064;-50
2022/03/20 07:29:58;;;;;;;19.27;15.43;;;;;;;10.13;33.74;101573.28;5051519;28;20060;-55
2022/03/20 07:32:25;;;;;;;17.83;13.85;;;;;;;10.40;33.14;101567.34;5045616;28;20380;-56
2022/03/20 07:34:54;;;;;;;17.65;14.55;;;;;;;10.85;32.70;101565.38;5038099;28;20409;-52
2022/03/20 07:37:21;;;;;;;18.50;13.98;;;;;;;11.28;31.98;101571.19;5033991;28;20064;-50
2022/03/20 07:39:53;;;;;;;18.77;14.75;;;;;;;11.27;32.01;101558.34;5041103;28;20057;-50
2022/03/20 07:42:26;;;;;;;17.95;14.20;;;;;;;11.35;31.65;101560.53;5040787;28;20379;-53
2022/03/20 07:44:53;;;;;;;18.38;14.63;;;;;;;11.28;31.91;101551.66;5048174;28;20068;-53
2022/03/20 07:47:21;;;;;;;19.50;14.68;;;;;;;11.28;31.77;101550.84;5042888;28;20413;-49
2022/03/20 07:49:50;;;;;;;17.95;14.88;;;;;;;11.23;31.84;101539.72;5048804;28;20053;-53
2022/03/20 07:52:19;;;;;;;17.40;13.35;;;;;;;11.09;31.86;101532.03;5052232;28;20056;-49
2022/03/20 07:54:47;;;;;;;17.85;14.40;;;;;;;10.97;32.23;101537.97;5051053;28;20060;-50
2022/03/20 07:57:15;;;;;;;17.77;14.75;;;;;;;10.90;32.35;101534.69;5049285;28;20065;-50
2022/03/20 07:59:44;;;;;;;19.90;14.90;;;;;;;10.90;32.26;101529.13;5048660;28;20540;-50
2022/03/20 08:02:12;;;;;;;20.17;15.13;;;;;;;10.81;32.86;101516.91;5051994;28;20056;-50
2022/03/20 08:04:40;;;;;;;19.38;15.38;;;;;;;10.85;32.71;101519.97;5046547;28;20497;-53
2022/03/20 08:07:08;;;;;;;19.17;15.80;;;;;;;10.80;32.63;101520.00;5051004;28;20041;-51
2022/03/20 08:09:37;;;;;;;18.95;14.18;;;;;;;10.92;32.79;101512.13;5047218;28;20495;-54
2022/03/20 08:12:06;;;;;;;18.88;15.25;;;;;;;11.04;32.69;101508.94;5043711;28;20523;-53
2022/03/20 08:14:36;;;;;;;18.67;15.17;;;;;;;11.03;32.85;101510.06;5044869;28;20052;-50
2022/03/20 08:17:08;;;;;;;17.65;13.88;;;;;;;11.12;32.69;101517.50;5046123;28;20397;-49
2022/03/20 08:19:35;;;;;;;18.58;15.40;;;;;;;11.09;32.66;101504.16;5043979;28;20075;-54
2022/03/20 08:22:05;;;;;;;19.17;15.13;;;;;;;11.09;32.46;101504.16;5038149;28;20044;-52
2022/03/20 08:24:32;;;;;;;19.08;15.05;;;;;;;11.20;32.93;101501.28;5051452;28;20060;-50
2022/03/20 08:27:01;;;;;;;20.45;15.80;;;;;;;11.41;32.38;101497.16;5044037;28;20061;-50
2022/03/20 08:29:28;;;;;;;20.70;15.32;;;;;;;11.65;32.04;101493.53;5041772;28;20431;-51
2022/03/20 08:31:56;;;;;;;17.65;15.60;;;;;;;11.93;32.13;101494.66;5048937;28;20053;-51
2022/03/20 08:34:23;;;;;;;19.85;15.80;;;;;;;12.04;31.58;101490.59;5048839;28;20049;-50
2022/03/20 08:36:50;;;;;;;21.02;16.35;;;;;;;12.30;31.32;101484.63;5040277;28;20058;-52
2022/03/20 08:39:18;;;;;;;16.70;14.93;;;;;;;12.42;31.62;101476.66;5043441;28;20067;-51
2022/03/20 08:41:47;;;;;;;19.45;15.90;;;;;;;12.66;31.34;101468.19;5048525;28;20053;-52
2022/03/20 08:44:16;;;;;;;19.83;15.73;;;;;;;12.92;30.85;101457.38;5039578;28;20490;-56
2022/03/20 08:46:44;;;;;;;19.63;16.13;;;;;;;13.07;31.00;101449.88;5045973;28;20062;-50
2022/03/20 08:49:11;;;;;;;17.83;15.48;;;;;;;13.31;30.79;101446.91;5050429;28;20060;-51
2022/03/20 08:51:39;;;;;;;18.13;15.55;;;;;;;13.67;30.24;101444.25;5051609;28;20049;-50
2022/03/20 08:54:07;;;;;;;20.15;15.75;;;;;;;13.99;29.37;101439.66;5043434;28;20049;-50
2022/03/20 08:56:34;;;;;;;20.10;15.43;;;;;;;14.58;29.56;101443.34;5051366;28;20053;-50
2022/03/20 08:59:01;;;;;;;19.00;16.45;;;;;;;15.25;28.63;101432.41;5047626;28;20053;-52
2022/03/20 09:01:31;;;;;;;18.77;15.55;;;;;;;15.86;27.75;101429.84;5039336;28;20486;-52
2022/03/20 09:03:58;;;;;;;19.95;17.73;;;;;;;16.29;27.37;101426.25;5031075;28;20056;-54
2022/03/20 09:06:26;;;;;;;18.98;16.98;;;;;;;16.66;26.84;101416.31;5035410;28;20056;-52
2022/03/20 09:08:54;;;;;;;19.30;16.15;;;;;;;17.16;26.90;101417.75;5050101;28;20049;-51
2022/03/20 09:11:22;;;;;;;19.67;17.17;;;;;;;17.69;26.03;101407.06;5035700;28;20054;-51
2022/03/20 09:13:49;;;;;;;19.27;16.73;;;;;;;18.15;25.66;101408.94;5048700;28;20417;-53
2022/03/20 09:19:07;;;;;;;19.40;17.30;;;;;;;19.89;23.66;101389.28;5047497;28;20137;-50
2022/03/20 09:21:36;;;;;;;18.88;16.83;;;;;;;20.20;23.21;101368.84;5044419;28;20056;-53
2022/03/20 09:24:07;;;;;;;19.80;17.73;;;;;;;20.98;22.37;101360.13;5051559;28;20053;-54
2022/03/20 09:26:34;;;;;;;18.95;16.73;;;;;;;21.82;21.35;101348.47;5031508;28;20094;-51
2022/03/20 09:29:02;;;;;;;19.50;17.40;;;;;;;23.90;20.22;101337.34;5047180;28;20068;-52
2022/03/20 09:31:31;;;;;;;19.70;17.60;;;;;;;25.76;18.31;101329.91;5048414;28;20049;-53
2022/03/20 09:33:59;;;;;;;21.55;18.73;;;;;;;26.35;16.35;101346.94;5034669;28;20485;-50
2022/03/20 09:36:27;;;;;;;22.98;20.58;;;;;;;25.39;16.83;101348.00;5035051;28;20049;-55
2022/03/20 09:38:55;;;;;;;21.77;19.63;;;;;;;25.31;16.72;101371.97;5038707;28;20057;-54
2022/03/20 09:41:28;;;;;;;22.42;20.23;;;;;;;24.89;17.36;101381.72;5045971;28;20064;-53
2022/03/20 09:43:55;;;;;;;23.85;21.45;;;;;;;23.41;18.47;101384.50;5053775;28;20048;-53
2022/03/20 09:46:22;;;;;;;23.02;20.65;;;;;;;22.88;18.41;101390.03;5054767;28;20053;-57
2022/03/20 09:48:57;;;;;;;21.92;19.73;;;;;;;22.29;19.13;101384.38;5054619;28;20052;-54
2022/03/20 09:51:29;;;;;;;21.98;19.77;;;;;;;21.58;20.12;101377.03;5053354;28;20485;-56
2022/03/20 09:53:56;;;;;;;23.55;19.67;;;;;;;21.93;19.72;101390.44;5048224;28;20482;-53
2022/03/20 09:56:24;;;;;;;22.38;20.10;;;;;;;22.01;20.19;101384.53;5053942;28;20397;-51
2022/03/20 09:58:51;;;;;;;21.65;19.45;;;;;;;22.28;20.04;101388.41;5052595;28;20056;-56
2022/03/20 10:01:18;;;;;;;23.48;21.02;;;;;;;22.13;19.62;101385.59;5052097;28;20053;-53
2022/03/20 10:03:46;;;;;;;21.98;19.67;;;;;;;21.17;20.76;101399.06;5053185;28;20053;-56
2022/03/20 10:06:17;;;;;;;23.38;20.88;;;;;;;19.15;21.77;101411.84;5047271;28;20057;-59
2022/03/20 10:09:07;;;;;;;22.58;20.02;;;;;;;18.23;23.17;101415.69;5048273;28;20049;-53
2022/03/20 10:11:35;;;;;;;23.52;20.42;;;;;;;17.94;24.32;101408.13;5048095;28;20049;-54
2022/03/20 10:14:08;;;;;;;24.23;20.48;;;;;;;16.92;25.66;101401.41;5048246;28;20053;-49
2022/03/20 10:16:36;;;;;;;23.13;20.30;;;;;;;17.03;25.84;101395.09;5042815;28;20049;-55
2022/03/20 10:19:30;;;;;;;22.50;19.70;;;;;;;17.48;25.51;101390.13;5046020;28;20049;-53
2022/03/20 10:22:00;;;;;;;25.20;20.42;;;;;;;17.41;25.27;101390.66;5044462;28;20060;-51
2022/03/20 10:24:31;;;;;;;23.55;20.98;;;;;;;17.59;25.05;101386.56;5053856;28;20409;-55
2022/03/20 10:27:14;;;;;;;22.27;19.98;;;;;;;17.35;25.35;101375.94;5053969;28;20430;-54
2022/03/20 10:29:50;;;;;;;22.65;20.25;;;;;;;17.55;25.35;101387.56;5052435;28;20053;-53
2022/03/20 10:32:18;;;;;;;22.40;19.80;;;;;;;17.12;25.60;101383.81;5050431;28;20063;-52
2022/03/20 10:34:58;;;;;;;22.15;19.77;;;;;;;17.01;25.73;101394.59;5052764;28;20053;-51
2022/03/20 10:37:47;;;;;;;24.17;20.20;;;;;;;16.61;26.75;101379.94;5053623;28;20402;-52
2022/03/20 10:40:22;;;;;;;24.70;21.38;;;;;;;16.48;26.95;101384.56;5052593;28;20056;-54
2022/03/20 10:43:09;;;;;;;23.60;20.30;;;;;;;16.13;27.18;101387.41;5053730;28;20067;-55
2022/03/20 10:45:54;;;;;;;22.25;19.85;;;;;;;15.89;27.82;101381.41;5051506;28;20053;-55
2022/03/20 10:48:30;;;;;;;22.45;20.05;;;;;;;16.15;27.81;101393.53;5052727;28;20067;-52
2022/03/20 10:50:57;;;;;;;23.95;20.35;;;;;;;16.81;27.13;101382.06;5053799;28;20044;-57
2022/03/20 10:53:25;;;;;;;22.65;20.10;;;;;;;17.12;26.12;101377.34;5053093;28;20439;-57
2022/03/20 10:55:57;;;;;;;24.02;20.75;;;;;;;17.16;26.68;101375.53;5053232;28;20414;-57
2022/03/20 10:58:26;;;;;;;23.85;21.00;;;;;;;16.92;26.48;101374.09;5052149;28;20068;-57
2022/03/20 11:00:56;;;;;;;23.67;21.17;;;;;;;17.10;26.46;101379.69;5052721;28;20470;-53
2022/03/20 11:03:24;;;;;;;25.45;21.60;;;;;;;17.24;26.42;101366.22;5052503;28;20068;-57
2022/03/20 11:05:52;;;;;;;23.55;20.67;;;;;;;17.99;26.06;101365.63;5053082;28;20076;-54
2022/03/20 11:08:23;;;;;;;24.63;22.02;;;;;;;18.50;25.47;101363.53;5052034;28;20052;-57
2022/03/20 11:10:54;;;;;;;25.08;20.85;;;;;;;19.12;25.36;101355.25;5052404;28;20057;-53
2022/03/20 11:13:23;;;;;;;23.30;20.80;;;;;;;18.95;24.58;101356.28;5052192;28;20520;-52
2022/03/20 11:15:53;;;;;;;22.85;20.40;;;;;;;18.38;25.32;101369.94;5052258;28;20048;-57
2022/03/20 11:18:22;;;;;;;22.83;20.05;;;;;;;18.85;24.86;101354.72;5052041;28;20053;-54
2022/03/20 11:20:53;;;;;;;21.83;19.63;;;;;;;19.66;24.10;101357.84;5052903;28;20052;-53
2022/03/20 11:23:24;;;;;;;25.20;21.48;;;;;;;19.64;23.58;101360.19;5052325;28;20053;-55
2022/03/20 11:25:53;;;;;;;23.50;21.00;;;;;;;19.41;24.23;101355.03;5052251;28;20489;-56
2022/03/20 11:28:24;;;;;;;21.73;19.52;;;;;;;20.20;23.57;101351.88;5052167;28;20493;-54
2022/03/20 11:30:53;;;;;;;23.85;20.52;;;;;;;20.50;22.95;101350.69;5051896;28;20470;-56
2022/03/20 11:33:22;;;;;;;25.73;21.63;;;;;;;20.35;23.07;101355.94;5052043;28;20060;-55
2022/03/20 11:35:50;;;;;;;23.50;21.00;;;;;;;19.95;23.23;101364.41;5052039;28;20053;-54
2022/03/20 11:38:20;;;;;;;23.98;20.55;;;;;;;19.47;24.16;101344.31;5051927;28;20052;-54
2022/03/20 11:41:21;;;;;;;23.67;20.55;;;;;;;19.95;24.33;101355.91;5052458;28;20049;-55
2022/03/20 11:44:16;;;;;;;22.35;19.95;;;;;;;19.71;24.29;101351.16;4990494;28;20065;-54
2022/03/20 11:46:45;;;;;;;24.55;21.45;;;;;;;19.48;24.24;101346.75;4970964;28;20063;-53
2022/03/20 11:49:21;;;;;;;22.90;20.50;;;;;;;19.72;24.65;101350.81;5017937;28;20061;-52
2022/03/20 11:51:53;;;;;;;22.65;20.20;;;;;;;19.31;25.09;101329.25;5044881;28;20053;-54
2022/03/20 11:54:21;;;;;;;22.77;20.40;;;;;;;19.35;25.26;101335.84;5031822;28;20060;-50
2022/03/20 11:56:52;;;;;;;25.45;22.40;;;;;;;19.56;24.93;101332.88;5039773;28;20086;-52